Aniara — SKJC — position and weather

sailwx.info

Track history (hours):
 
Tides and Currents Weather Stations Pressure Air Temp Water Temp Dewpoint Dewpoint Depression Visibility Wind Speed Wind Dir Waves Ship Positions

Aniara

Last reported at 2016-Dec-11 10:26 UTC. Time now 2016-Dec-11 13:58 UTC.
Position N 38°08' W 076°14'.

Length 232 m; draft 9.5 m.

Type: Cargo ship. MMSI: 266282000.

Date/timePositionNaut miles runAvg speedWind from/ knotsBaromVisibWave heightAir tempDewpointWater temp
2016-Dec-11 10:26N 38°08' W 076°14'3718.8
2016-Dec-11 08:27N 38°44' W 076°26'1617.4
2016-Dec-11 07:34N 38°59' W 076°23'1212.3
2016-Dec-11 06:33N 39°11' W 076°28'5 5.0
2016-Dec-11 05:33N 39°15' W 076°32'0 0.0
2016-Dec-11 04:33N 39°15' W 076°32'0 0.0
2016-Dec-11 03:30N 39°15' W 076°32'0 0.0
2016-Dec-11 02:33N 39°15' W 076°32'0 0.0
2016-Dec-11 01:33N 39°15' W 076°32'0 0.0
2016-Dec-11 00:33N 39°15' W 076°32'0 0.0
2016-Dec-10 23:33N 39°15' W 076°32'0 0.0
2016-Dec-10 22:33N 39°15' W 076°32'0 0.0
2016-Dec-10 21:33N 39°15' W 076°32'0 0.0
2016-Dec-10 20:33N 39°15' W 076°32'0 0.0
2016-Dec-10 19:33N 39°15' W 076°32'0 0.0
2016-Dec-10 18:33N 39°15' W 076°32'0 0.0
2016-Dec-10 17:33N 39°15' W 076°32'0 0.0
2016-Dec-10 16:33N 39°15' W 076°32'0 0.0
2016-Dec-10 15:33N 39°15' W 076°32'0 0.0
2016-Dec-10 14:33N 39°15' W 076°32'0 0.0
2016-Dec-10 13:33N 39°15' W 076°32'0 0.0
2016-Dec-10 12:33N 39°15' W 076°32'2 2.4
2016-Dec-10 11:33N 39°12' W 076°31'8 7.7
2016-Dec-10 10:33N 39°07' W 076°24'1515.2
2016-Dec-10 09:33N 38°52' W 076°24'11315.9
2016-Dec-10 02:28N 37°01' W 076°03'  
2016-Dec-02 14:26N 49°52' W 005°10'1617.9
2016-Dec-02 13:33N 49°56' W 004°46'2019.8
2016-Dec-02 12:34N 49°60' W 004°16'2019.7
2016-Dec-02 11:33N 50°04' W 003°46'1918.8
2016-Dec-02 10:33N 50°10' W 003°18'1817.7
2016-Dec-02 09:34N 50°14' W 002°51'3716.7
2016-Dec-02 07:20N 50°24' W 001°55'3318.2
2016-Dec-02 05:33N 50°33' W 001°05'1111.2
2016-Dec-02 04:34N 50°44' W 001°03'1312.6
2016-Dec-02 03:34N 50°51' W 001°20'4 3.6
2016-Dec-02 02:32N 50°53' W 001°24'0 0.0
2016-Dec-02 01:29N 50°53' W 001°24'0 0.0
2016-Dec-02 00:29N 50°53' W 001°24'0 0.0
2016-Dec-01 23:29N 50°53' W 001°24'0 0.0
2016-Dec-01 20:17N 50°53' W 001°24'0 0.0
2016-Dec-01 15:23N 50°53' W 001°24'0 0.0
2016-Dec-01 14:23N 50°53' W 001°24'0 0.0
2016-Dec-01 11:32N 50°53' W 001°24'0 0.0
2016-Dec-01 10:32N 50°53' W 001°24'  
Track history (hours):
 
Tides and Currents Weather Stations Pressure Air Temp Water Temp Dewpoint Dewpoint Depression Visibility Wind Speed Wind Dir Waves Ship Positions

Aniara

Last reported at 2016-Dec-11 10:26 UTC. Time now 2016-Dec-11 13:58 UTC.
Position N 38°08' W 076°14'.

Length 232 m; draft 9.5 m.

Type: Cargo ship. MMSI: 266282000.

Date/timePositionNaut miles runAvg speedWind from/ knotsBaromVisibWave heightAir tempDewpointWater temp
2016-Dec-11 10:26N 38°08' W 076°14'3718.8
2016-Dec-11 08:27N 38°44' W 076°26'1617.4
2016-Dec-11 07:34N 38°59' W 076°23'1212.3
2016-Dec-11 06:33N 39°11' W 076°28'5 5.0
2016-Dec-11 05:33N 39°15' W 076°32'0 0.0
2016-Dec-11 04:33N 39°15' W 076°32'0 0.0
2016-Dec-11 03:30N 39°15' W 076°32'0 0.0
2016-Dec-11 02:33N 39°15' W 076°32'0 0.0
2016-Dec-11 01:33N 39°15' W 076°32'0 0.0
2016-Dec-11 00:33N 39°15' W 076°32'0 0.0
2016-Dec-10 23:33N 39°15' W 076°32'0 0.0
2016-Dec-10 22:33N 39°15' W 076°32'0 0.0
2016-Dec-10 21:33N 39°15' W 076°32'0 0.0
2016-Dec-10 20:33N 39°15' W 076°32'0 0.0
2016-Dec-10 19:33N 39°15' W 076°32'0 0.0
2016-Dec-10 18:33N 39°15' W 076°32'0 0.0
2016-Dec-10 17:33N 39°15' W 076°32'0 0.0
2016-Dec-10 16:33N 39°15' W 076°32'0 0.0
2016-Dec-10 15:33N 39°15' W 076°32'0 0.0
2016-Dec-10 14:33N 39°15' W 076°32'0 0.0
2016-Dec-10 13:33N 39°15' W 076°32'0 0.0
2016-Dec-10 12:33N 39°15' W 076°32'2 2.4
2016-Dec-10 11:33N 39°12' W 076°31'8 7.7
2016-Dec-10 10:33N 39°07' W 076°24'1515.2
2016-Dec-10 09:33N 38°52' W 076°24'11315.9
2016-Dec-10 02:28N 37°01' W 076°03'  
2016-Dec-02 14:26N 49°52' W 005°10'1617.9
2016-Dec-02 13:33N 49°56' W 004°46'2019.8
2016-Dec-02 12:34N 49°60' W 004°16'2019.7
2016-Dec-02 11:33N 50°04' W 003°46'1918.8
2016-Dec-02 10:33N 50°10' W 003°18'1817.7
2016-Dec-02 09:34N 50°14' W 002°51'3716.7
2016-Dec-02 07:20N 50°24' W 001°55'3318.2
2016-Dec-02 05:33N 50°33' W 001°05'1111.2
2016-Dec-02 04:34N 50°44' W 001°03'1312.6
2016-Dec-02 03:34N 50°51' W 001°20'4 3.6
2016-Dec-02 02:32N 50°53' W 001°24'0 0.0
2016-Dec-02 01:29N 50°53' W 001°24'0 0.0
2016-Dec-02 00:29N 50°53' W 001°24'0 0.0
2016-Dec-01 23:29N 50°53' W 001°24'0 0.0
2016-Dec-01 20:17N 50°53' W 001°24'0 0.0
2016-Dec-01 15:23N 50°53' W 001°24'0 0.0
2016-Dec-01 14:23N 50°53' W 001°24'0 0.0
2016-Dec-01 11:32N 50°53' W 001°24'0 0.0
2016-Dec-01 10:32N 50°53' W 001°24'  

Dump ship's entire track history